createdAt,value
2022-10-11T00:02:26.489Z,97947.88
2022-10-11T00:05:15.216Z,97967.75
2022-10-11T00:08:06.075Z,97793.03
2022-10-11T00:10:59.665Z,97934.81
2022-10-11T00:13:48.346Z,97965.97
2022-10-11T00:16:38.725Z,97968.78
2022-10-11T00:19:27.225Z,97960.31
2022-10-11T00:22:15.962Z,97978.47
2022-10-11T00:25:07.279Z,97946.50
2022-10-11T00:27:56.386Z,97969.78
2022-10-11T00:30:44.916Z,97972.53
2022-10-11T00:33:33.500Z,97939.47
2022-10-11T00:36:22.197Z,97940.41
2022-10-11T00:39:10.786Z,97949.75
2022-10-11T00:42:00.678Z,97952.34
2022-10-11T00:44:51.787Z,97955.00
2022-10-11T00:47:42.458Z,97955.72
2022-10-11T00:50:34.465Z,97958.09
2022-10-11T00:53:24.057Z,97955.50
2022-10-11T00:56:18.726Z,97955.81
2022-10-11T00:59:13.766Z,97962.25
2022-10-11T01:02:02.505Z,97954.69
2022-10-11T01:05:05.631Z,97802.50
2022-10-11T01:08:01.506Z,97957.47
2022-10-11T01:10:50.815Z,97952.88
2022-10-11T01:13:51.416Z,97945.09
2022-10-11T01:16:51.097Z,97960.78
2022-10-11T01:20:12.259Z,97933.88
2022-10-11T01:23:33.337Z,97938.25
2022-10-11T01:26:57.575Z,97919.88
2022-10-11T01:29:53.919Z,97958.00
2022-10-11T01:32:50.438Z,97956.13
2022-10-11T01:35:43.335Z,97957.63
2022-10-11T01:38:36.240Z,97954.09
2022-10-11T01:41:28.386Z,97958.06
2022-10-11T01:44:17.676Z,97958.28
2022-10-11T01:47:06.548Z,97897.97
2022-10-11T01:49:58.812Z,97954.84
2022-10-11T01:52:48.549Z,97951.25
2022-10-11T01:55:48.708Z,97952.06
2022-10-11T01:58:52.531Z,97948.59
2022-10-11T02:01:54.015Z,97902.84
2022-10-11T02:04:46.185Z,97951.16
2022-10-11T02:07:44.826Z,97946.81
2022-10-11T02:10:37.578Z,97951.06
2022-10-11T02:13:32.806Z,97950.03
2022-10-11T02:16:26.815Z,97952.66
2022-10-11T02:19:20.385Z,97955.09
2022-10-11T02:22:16.106Z,97950.75
2022-10-11T02:25:10.471Z,97826.94
2022-10-11T02:28:02.409Z,97902.84
2022-10-11T02:30:53.175Z,97965.56
2022-10-11T02:33:48.365Z,97948.41
2022-10-11T02:36:43.864Z,97964.00
2022-10-11T02:39:42.409Z,97935.78
2022-10-11T02:42:37.426Z,97965.94
2022-10-11T02:45:30.545Z,97971.28
2022-10-11T02:48:20.056Z,97973.06
2022-10-11T02:51:13.593Z,97973.00
2022-10-11T02:54:02.251Z,97955.75
2022-10-11T02:56:50.788Z,97979.00
2022-10-11T02:59:41.058Z,97981.69
2022-10-11T03:02:29.580Z,97935.88
2022-10-11T03:05:18.275Z,97846.25
2022-10-11T03:08:07.010Z,97975.53
2022-10-11T03:10:56.097Z,97846.28
2022-10-11T03:13:44.619Z,97976.22
2022-10-11T03:16:34.585Z,97977.16
2022-10-11T03:19:23.229Z,97953.13
2022-10-11T03:22:11.795Z,97991.88
2022-10-11T03:25:04.033Z,97981.38
2022-10-11T03:27:53.275Z,97987.31
2022-10-11T03:30:41.765Z,97908.16
2022-10-11T03:33:31.740Z,97992.50
2022-10-11T03:36:20.265Z,98006.53
2022-10-11T03:39:09.052Z,98000.38
2022-10-11T03:41:57.555Z,97970.19
2022-10-11T03:44:46.126Z,97852.50
2022-10-11T03:47:34.866Z,98002.38
2022-10-11T03:50:25.055Z,97998.13
2022-10-11T03:53:13.750Z,97969.03
2022-10-11T03:56:07.382Z,98006.00
2022-10-11T03:58:57.003Z,98010.50
2022-10-11T04:01:45.612Z,98013.94
2022-10-11T04:04:34.349Z,98008.47
2022-10-11T04:07:24.296Z,98009.63
2022-10-11T04:10:12.910Z,98004.44
2022-10-11T04:13:01.456Z,98018.53
2022-10-11T04:15:50.007Z,98011.56
2022-10-11T04:18:38.518Z,98013.19
2022-10-11T04:21:27.050Z,98013.97
2022-10-11T04:24:17.110Z,97992.59
2022-10-11T04:27:06.435Z,98021.00
2022-10-11T04:29:55.040Z,98029.72
2022-10-11T04:32:43.795Z,98034.97
2022-10-11T04:35:32.416Z,98034.03
2022-10-11T04:38:20.916Z,98040.94
2022-10-11T04:41:12.342Z,98036.75
2022-10-11T04:44:00.938Z,98043.50
2022-10-11T04:46:49.552Z,98042.09
2022-10-11T04:49:38.045Z,98046.47
2022-10-11T04:52:26.653Z,97991.28
2022-10-11T04:55:15.137Z,98043.03
2022-10-11T04:58:05.098Z,98011.81
2022-10-11T05:00:53.635Z,97967.03
2022-10-11T05:03:42.195Z,98041.16
2022-10-11T05:06:30.845Z,97922.31
2022-10-11T05:09:19.466Z,98034.31
2022-10-11T05:12:08.061Z,98055.13
2022-10-11T05:14:58.355Z,97792.28
2022-10-11T05:17:46.835Z,98036.03
2022-10-11T05:20:35.400Z,98053.78
2022-10-11T05:23:23.981Z,98066.06
2022-10-11T05:26:12.605Z,98019.06
2022-10-11T05:29:01.222Z,98069.22
2022-10-11T05:31:51.307Z,98067.50
2022-10-11T05:34:39.795Z,98076.56
2022-10-11T05:37:28.399Z,98054.31
2022-10-11T05:40:17.089Z,98076.66
2022-10-11T05:43:05.901Z,98080.09
2022-10-11T05:45:54.401Z,98080.81
2022-10-11T05:48:44.397Z,98081.53
2022-10-11T05:51:33.006Z,98083.81
2022-10-11T05:54:21.695Z,98081.94
2022-10-11T05:57:10.226Z,98061.38
2022-10-11T05:59:58.844Z,98088.84
2022-10-11T06:02:47.437Z,98094.16
2022-10-11T06:05:37.518Z,98104.97
2022-10-11T06:08:26.098Z,98068.84
2022-10-11T06:11:16.480Z,98107.59
2022-10-11T06:14:05.056Z,98106.00
2022-10-11T06:16:53.803Z,98094.03
2022-10-11T06:19:42.358Z,98118.13
2022-10-11T06:22:32.336Z,98118.88
2022-10-11T06:25:21.055Z,98124.66
2022-10-11T06:28:09.651Z,98119.06
2022-10-11T06:30:58.569Z,98128.09
2022-10-11T06:33:47.155Z,98108.16
2022-10-11T06:36:35.746Z,98114.47
2022-10-11T06:39:25.706Z,98129.72
2022-10-11T06:42:14.490Z,98038.06
2022-10-11T06:45:03.041Z,98142.22
2022-10-11T06:47:51.796Z,98109.13
2022-10-11T06:50:58.499Z,98022.94
2022-10-11T06:53:51.033Z,98140.31
2022-10-11T06:56:41.255Z,98133.88
2022-10-11T06:59:29.805Z,98157.72
2022-10-11T07:02:18.436Z,98159.72
2022-10-11T07:05:07.786Z,98155.91
2022-10-11T07:07:56.479Z,98075.84
2022-10-11T07:10:45.089Z,98103.38
2022-10-11T07:13:35.286Z,98151.59
2022-10-11T07:16:25.114Z,98152.09
2022-10-11T07:19:13.947Z,98153.28
2022-10-11T07:22:02.545Z,98157.09
2022-10-11T07:24:51.090Z,98144.19
2022-10-11T07:27:39.652Z,98154.31
2022-10-11T07:30:29.648Z,98153.34
2022-10-11T07:33:18.423Z,98149.75
2022-10-11T07:36:08.547Z,98155.47
2022-10-11T07:38:57.357Z,98162.00
2022-10-11T07:41:46.234Z,98039.13
2022-10-11T07:44:35.205Z,98153.72
2022-10-11T07:47:25.246Z,98157.44
2022-10-11T07:50:13.996Z,98148.63
2022-10-11T07:53:02.548Z,98154.00
2022-10-11T07:55:51.067Z,98161.88
2022-10-11T07:58:39.635Z,98142.09
2022-10-11T08:01:29.767Z,98127.97
2022-10-11T08:04:21.457Z,98080.72
2022-10-11T08:07:10.051Z,98167.63
2022-10-11T08:09:58.636Z,98067.19
2022-10-11T08:12:48.676Z,98167.75
2022-10-11T08:15:37.593Z,98174.75
2022-10-11T08:18:26.230Z,98170.53
2022-10-11T08:21:18.005Z,98177.88
2022-10-11T08:24:07.795Z,98176.53
2022-10-11T08:26:56.665Z,98180.06
2022-10-11T08:29:45.310Z,98161.78
2022-10-11T08:32:33.911Z,98180.31
2022-10-11T08:35:22.478Z,98141.38
2022-10-11T08:38:12.841Z,98184.75
2022-10-11T08:41:02.607Z,98104.78
2022-10-11T08:44:02.914Z,98190.34
2022-10-11T08:47:00.533Z,98190.59
2022-10-11T08:49:49.855Z,98032.72
2022-10-11T08:52:46.552Z,98189.34
2022-10-11T08:55:42.028Z,98189.88
2022-10-11T08:58:39.565Z,98196.94
2022-10-11T09:01:29.548Z,98137.25
2022-10-11T09:04:19.548Z,98199.06
2022-10-11T09:07:19.643Z,98144.19
2022-10-11T09:10:33.296Z,98193.88
2022-10-11T09:13:42.915Z,98186.09
2022-10-11T09:16:42.782Z,98193.97
2022-10-11T09:20:06.339Z,98191.00
2022-10-11T09:23:01.913Z,98195.22
2022-10-11T09:25:55.910Z,98197.00
2022-10-11T09:29:00.180Z,98193.03
2022-10-11T09:31:54.398Z,98188.97
2022-10-11T09:34:43.265Z,98175.06
2022-10-11T09:37:36.834Z,98196.56
2022-10-11T09:40:41.437Z,98181.66
2022-10-11T09:43:30.228Z,98184.72
2022-10-11T09:46:31.015Z,98105.19
2022-10-11T09:49:23.180Z,98187.63
2022-10-11T09:52:17.689Z,98188.56
2022-10-11T09:55:06.856Z,98190.97
2022-10-11T09:57:56.709Z,98161.44
2022-10-11T10:00:58.677Z,98185.66
2022-10-11T10:03:48.985Z,98184.47
2022-10-11T10:06:37.879Z,98185.97
2022-10-11T10:09:28.855Z,98183.38
2022-10-11T10:12:23.646Z,98183.16
2022-10-11T10:15:20.207Z,98179.72
2022-10-11T10:18:10.736Z,98168.72
2022-10-11T10:21:01.249Z,98178.97
2022-10-11T10:23:56.039Z,98150.56
2022-10-11T10:27:04.735Z,98178.84
2022-10-11T10:30:20.835Z,98179.91
2022-10-11T10:33:12.918Z,98177.59
2022-10-11T10:36:09.552Z,98182.91
2022-10-11T10:39:06.115Z,98177.25
2022-10-11T10:41:54.945Z,98162.06
2022-10-11T10:44:44.636Z,98163.53
2022-10-11T10:47:51.311Z,98180.94
2022-10-11T10:50:51.982Z,98178.09
2022-10-11T10:53:45.779Z,98185.91
2022-10-11T10:56:39.353Z,98174.50
2022-10-11T10:59:44.419Z,98162.38
2022-10-11T11:02:41.807Z,98150.88
2022-10-11T11:05:44.723Z,98173.06
2022-10-11T11:08:49.256Z,98179.94
2022-10-11T11:11:46.916Z,98179.94
2022-10-11T11:14:46.423Z,98161.97
2022-10-11T11:17:48.443Z,98163.34
2022-10-11T11:20:57.407Z,98019.31
2022-10-11T11:23:54.417Z,98153.38
2022-10-11T11:26:49.203Z,98164.56
2022-10-11T11:29:51.853Z,98157.38
2022-10-11T11:32:52.605Z,98154.47
2022-10-11T11:35:44.333Z,98145.53
2022-10-11T11:38:45.291Z,98146.78
2022-10-11T11:41:41.536Z,98133.63
2022-10-11T11:44:34.012Z,98145.34
2022-10-11T11:47:27.809Z,98141.91
2022-10-11T11:50:22.835Z,98119.19
2022-10-11T11:53:16.600Z,98112.22
2022-10-11T11:56:11.037Z,98129.91
2022-10-11T11:59:12.010Z,98132.78
2022-10-11T12:02:18.168Z,98128.06
2022-10-11T12:05:08.211Z,98125.47
2022-10-11T12:08:00.099Z,98112.41
2022-10-11T12:10:57.271Z,98108.75
2022-10-11T12:13:47.846Z,98114.81
2022-10-11T12:17:12.115Z,98051.69
2022-10-11T12:20:11.006Z,98101.31
2022-10-11T12:23:01.541Z,98089.53
2022-10-11T12:26:34.155Z,98109.22
2022-10-11T12:29:48.331Z,98102.16
2022-10-11T12:32:53.758Z,98106.00
2022-10-11T12:36:05.626Z,98097.44
2022-10-11T12:39:30.244Z,98098.41
2022-10-11T12:42:32.859Z,98087.09
2022-10-11T12:45:35.776Z,98091.56
2022-10-11T12:48:41.494Z,98088.84
2022-10-11T12:51:38.262Z,98086.44
2022-10-11T12:55:04.757Z,98087.16
2022-10-11T12:58:22.954Z,98081.31
2022-10-11T13:01:19.699Z,98095.88
2022-10-11T13:04:12.805Z,98066.72
2022-10-11T13:07:06.908Z,98077.53
2022-10-11T13:09:55.866Z,98083.97
2022-10-11T13:12:46.084Z,98084.72
2022-10-11T13:15:36.429Z,98092.59
2022-10-11T13:18:27.097Z,98080.13
2022-10-11T13:21:28.678Z,98082.44
2022-10-11T13:24:19.484Z,98055.22
2022-10-11T13:27:09.386Z,98073.97
2022-10-11T13:30:02.442Z,98062.41
2022-10-11T13:32:52.455Z,98063.84
2022-10-11T13:35:41.157Z,98078.53
2022-10-11T13:38:33.223Z,98077.94
2022-10-11T13:41:22.318Z,98060.47
2022-10-11T13:44:11.284Z,98071.50
2022-10-11T13:47:00.178Z,98080.16
2022-10-11T13:49:53.658Z,98084.38
2022-10-11T13:52:56.265Z,98083.25
2022-10-11T13:55:53.449Z,98065.78
2022-10-11T13:58:47.845Z,98049.75
2022-10-11T14:01:45.077Z,98061.34
2022-10-11T14:04:41.364Z,98052.25
2022-10-11T14:07:36.763Z,98059.38
2022-10-11T14:10:26.124Z,98042.38
2022-10-11T14:13:26.993Z,98040.44
2022-10-11T14:16:30.595Z,98048.16
2022-10-11T14:19:21.486Z,98020.25
2022-10-11T14:22:15.194Z,98036.81
2022-10-11T14:25:03.842Z,98032.44
2022-10-11T14:27:54.483Z,98026.47
2022-10-11T14:30:44.555Z,98038.97
2022-10-11T14:33:33.273Z,98021.41
2022-10-11T14:36:23.163Z,98043.72
2022-10-11T14:39:16.458Z,98031.03
2022-10-11T14:42:05.396Z,98043.03
2022-10-11T14:44:54.069Z,98055.63
2022-10-11T14:47:44.381Z,97947.22
2022-10-11T14:50:39.303Z,98037.16
2022-10-11T14:53:28.236Z,98062.13
2022-10-11T14:56:21.279Z,98062.44
2022-10-11T14:59:15.429Z,98063.81
2022-10-11T15:02:05.219Z,98058.16
2022-10-11T15:04:55.323Z,97975.22
2022-10-11T15:07:43.873Z,98059.41
2022-10-11T15:10:36.391Z,98082.03
2022-10-11T15:13:25.075Z,98067.72
2022-10-11T15:16:15.386Z,98080.63
2022-10-11T15:19:04.236Z,98088.50
2022-10-11T15:21:54.473Z,98099.53
2022-10-11T15:24:43.057Z,98087.41
2022-10-11T15:27:31.664Z,98058.19
2022-10-11T15:30:22.785Z,98098.47
2022-10-11T15:33:11.394Z,98099.41
2022-10-11T15:36:00.025Z,98094.78
2022-10-11T15:38:50.725Z,98102.13
2022-10-11T15:41:39.324Z,98096.81
2022-10-11T15:44:28.215Z,98096.56
2022-10-11T15:47:17.218Z,98102.97
2022-10-11T15:50:12.315Z,98052.47
2022-10-11T15:53:01.446Z,98108.38
2022-10-11T15:55:53.237Z,98111.50
2022-10-11T15:58:42.915Z,98113.75
2022-10-11T16:01:31.540Z,98115.09
2022-10-11T16:04:20.205Z,98120.56
2022-10-11T16:07:08.914Z,98118.22
2022-10-11T16:09:57.579Z,98125.56
2022-10-11T16:12:47.712Z,98132.19
2022-10-11T16:15:37.960Z,98144.56
2022-10-11T16:18:29.138Z,98127.84
2022-10-11T16:21:23.685Z,98135.41
2022-10-11T16:24:12.308Z,98112.22
2022-10-11T16:27:01.240Z,98142.22
2022-10-11T16:29:51.461Z,98154.25
2022-10-11T16:32:40.843Z,98154.59
2022-10-11T16:35:32.501Z,98073.28
2022-10-11T16:38:21.509Z,98141.00
2022-10-11T16:41:10.160Z,98147.25
2022-10-11T16:43:58.799Z,98163.25
2022-10-11T16:46:49.663Z,98158.97
2022-10-11T16:49:38.649Z,98171.41
2022-10-11T16:52:27.286Z,98165.31
2022-10-11T16:55:15.985Z,98171.84
2022-10-11T16:58:04.617Z,98170.50
2022-10-11T17:00:53.481Z,98130.56
2022-10-11T17:03:43.657Z,98176.47
2022-10-11T17:06:32.379Z,98192.16
2022-10-11T17:09:20.936Z,98188.59
2022-10-11T17:12:10.959Z,98201.66
2022-10-11T17:14:59.659Z,98201.41
2022-10-11T17:17:48.253Z,98198.34
2022-10-11T17:20:38.253Z,98199.94
2022-10-11T17:23:27.075Z,98214.31
2022-10-11T17:26:19.472Z,98190.19
2022-10-11T17:29:09.108Z,98139.31
2022-10-11T17:31:58.006Z,98197.53
2022-10-11T17:34:47.257Z,98201.41
2022-10-11T17:37:37.909Z,98195.03
2022-10-11T17:40:28.309Z,98189.00
2022-10-11T17:43:17.037Z,98226.00
2022-10-11T17:46:09.195Z,98224.31
2022-10-11T17:48:58.923Z,98222.53
2022-10-11T17:51:48.293Z,98222.00
2022-10-11T17:54:39.593Z,98230.34
2022-10-11T17:57:28.299Z,98231.16
2022-10-11T18:00:18.317Z,98230.41
2022-10-11T18:03:07.944Z,98233.72
2022-10-11T18:05:57.265Z,98230.72
2022-10-11T18:08:46.319Z,98222.34
2022-10-11T18:11:36.871Z,98242.34
2022-10-11T18:14:25.486Z,98240.38
2022-10-11T18:17:14.913Z,98247.63
2022-10-11T18:20:05.977Z,98245.13
2022-10-11T18:22:56.449Z,98248.78
2022-10-11T18:25:45.673Z,98232.19
2022-10-11T18:28:37.262Z,98250.50
2022-10-11T18:31:28.157Z,98228.94
2022-10-11T18:34:17.253Z,98241.13
2022-10-11T18:37:06.978Z,98245.28
2022-10-11T18:39:55.849Z,98250.69
2022-10-11T18:42:45.099Z,98236.31
2022-10-11T18:45:36.416Z,98210.03
2022-10-11T18:48:26.329Z,98251.19
2022-10-11T18:51:18.743Z,98199.97
2022-10-11T18:54:09.730Z,98255.19
2022-10-11T18:57:00.104Z,98197.53
2022-10-11T18:59:49.298Z,98245.00
2022-10-11T19:02:39.752Z,98249.72
2022-10-11T19:05:29.388Z,98244.25
2022-10-11T19:08:18.402Z,98241.28
2022-10-11T19:11:08.378Z,98204.09
2022-10-11T19:13:57.890Z,98244.63
2022-10-11T19:16:49.966Z,98255.19
2022-10-11T19:19:41.288Z,98251.38
2022-10-11T19:22:29.926Z,98254.38
2022-10-11T19:25:19.545Z,98195.06
2022-10-11T19:28:13.554Z,98256.53
2022-10-11T19:31:05.785Z,98245.34
2022-10-11T19:33:55.530Z,98261.63
2022-10-11T19:36:46.318Z,98272.72
2022-10-11T19:39:35.276Z,98269.94
2022-10-11T19:42:24.283Z,98247.53
2022-10-11T19:45:13.643Z,98272.88
2022-10-11T19:48:02.698Z,98261.22
2022-10-11T19:50:51.313Z,98280.25
2022-10-11T19:53:41.867Z,98259.41
2022-10-11T19:56:32.278Z,98280.13
2022-10-11T19:59:21.847Z,98262.91
2022-10-11T20:02:14.875Z,98283.59
2022-10-11T20:05:03.910Z,98239.38
2022-10-11T20:07:52.485Z,98256.41
2022-10-11T20:10:42.665Z,98139.06
2022-10-11T20:13:34.881Z,98258.31
2022-10-11T20:16:26.122Z,98255.72
2022-10-11T20:19:14.808Z,98247.63
2022-10-11T20:22:04.013Z,98274.19
2022-10-11T20:24:52.695Z,98279.50
2022-10-11T20:27:43.943Z,98267.66
2022-10-11T20:30:32.613Z,98284.00
2022-10-11T20:33:21.294Z,98255.28
2022-10-11T20:36:11.862Z,98273.50
2022-10-11T20:39:01.505Z,98290.22
2022-10-11T20:41:50.074Z,98289.56
2022-10-11T20:44:40.193Z,98289.03
2022-10-11T20:47:28.823Z,98180.56
2022-10-11T20:50:22.134Z,98286.63
2022-10-11T20:53:16.157Z,98269.28
2022-10-11T20:56:05.721Z,98289.13
2022-10-11T20:58:56.439Z,98255.75
2022-10-11T21:01:46.580Z,98292.22
2022-10-11T21:04:35.288Z,98294.97
2022-10-11T21:07:23.872Z,98294.88
2022-10-11T21:10:12.473Z,98288.66
2022-10-11T21:13:01.263Z,98290.44
2022-10-11T21:15:49.898Z,98290.53
2022-10-11T21:18:39.948Z,98290.31
2022-10-11T21:21:29.613Z,98268.88
2022-10-11T21:24:18.348Z,98287.00
2022-10-11T21:27:06.873Z,98283.50
2022-10-11T21:29:55.512Z,98280.97
2022-10-11T21:32:44.088Z,98288.16
2022-10-11T21:35:34.146Z,98234.53
2022-10-11T21:38:22.753Z,98285.94
2022-10-11T21:41:13.535Z,98262.72
2022-10-11T21:44:02.303Z,98284.16
2022-10-11T21:47:07.674Z,98286.25
2022-10-11T21:49:56.661Z,98186.22
2022-10-11T21:52:46.851Z,98281.09
2022-10-11T21:55:35.461Z,98281.91
2022-10-11T21:58:24.057Z,98286.72
2022-10-11T22:01:12.843Z,98278.72
2022-10-11T22:04:01.633Z,98210.03
2022-10-11T22:06:50.253Z,98266.72
2022-10-11T22:09:40.322Z,98294.91
2022-10-11T22:12:28.934Z,98292.56
2022-10-11T22:15:17.556Z,98287.06
2022-10-11T22:18:06.377Z,98217.50
2022-10-11T22:20:55.185Z,98278.66
2022-10-11T22:23:45.624Z,98291.50
2022-10-11T22:26:36.675Z,98290.63
2022-10-11T22:29:25.313Z,98290.44
2022-10-11T22:32:13.923Z,98294.47
2022-10-11T22:35:02.518Z,98278.50
2022-10-11T22:37:51.544Z,98291.69
2022-10-11T22:40:41.358Z,98279.84
2022-10-11T22:43:31.465Z,98289.94
2022-10-11T22:46:20.337Z,98278.94
2022-10-11T22:49:08.901Z,98289.25
2022-10-11T22:51:57.633Z,98290.00
2022-10-11T22:54:46.287Z,98292.56
2022-10-11T22:57:35.210Z,98286.06
2022-10-11T23:00:25.537Z,98266.19
2022-10-11T23:03:14.555Z,98287.63
2022-10-11T23:06:03.323Z,98286.13
2022-10-11T23:08:51.903Z,98272.81
2022-10-11T23:11:40.523Z,98259.41
2022-10-11T23:14:29.165Z,98274.16
2022-10-11T23:17:19.295Z,98285.16
2022-10-11T23:20:09.015Z,98278.09
2022-10-11T23:22:57.657Z,98280.72
2022-10-11T23:25:46.288Z,98284.13
2022-10-11T23:28:35.873Z,98230.06
2022-10-11T23:31:24.653Z,98294.00
2022-10-11T23:34:14.890Z,98304.66
2022-10-11T23:37:03.871Z,98306.44
2022-10-11T23:39:52.507Z,98290.91
2022-10-11T23:42:41.104Z,98305.34
2022-10-11T23:45:29.726Z,98287.16
2022-10-11T23:48:18.337Z,98307.97
2022-10-11T23:51:08.793Z,98275.56
2022-10-11T23:53:57.348Z,98307.69
2022-10-11T23:56:46.013Z,98308.88
2022-10-11T23:59:34.678Z,98317.00
